Time;durP1;ratioP1;P1;durP2;ratioP2;P2;SDS_P1;SDS_P2;PMS_P1;PMS_P2;Temp;Humidity;BMP_temperature;BMP_pressure;BME280_temperature;BME280_humidity;BME280_pressure;Samples;Min_cycle;Max_cycle;Signal;HPM_P1;HPM_P2
2021/07/10 00:01:07;;;;;;;0.10;0.10;;;;;;;22.16;50.20;99132.06;5063386;28;20112;-77
2021/07/10 00:03:33;;;;;;;0.10;0.10;;;;;;;22.14;49.92;99142.56;5030806;28;20021;-78
2021/07/10 00:05:58;;;;;;;0.03;0.03;;;;;;;22.10;50.12;99130.75;5030937;28;20036;-76
2021/07/10 00:08:24;;;;;;;0.10;0.10;;;;;;;22.11;50.50;99132.34;5013240;28;20026;-78
2021/07/10 00:10:49;;;;;;;0.10;0.10;;;;;;;22.05;49.83;99122.88;5044315;28;20382;-78
2021/07/10 00:13:15;;;;;;;0.10;0.10;;;;;;;22.03;50.40;99127.84;5044275;28;20049;-78
2021/07/10 00:15:40;;;;;;;0.10;0.10;;;;;;;21.99;50.29;99121.53;5044811;28;20037;-75
2021/07/10 00:18:06;;;;;;;0.20;0.20;;;;;;;21.94;50.31;99119.09;5014874;28;20037;-75
2021/07/10 00:20:31;;;;;;;0.10;0.10;;;;;;;21.91;50.45;99109.69;5045924;28;20029;-75
2021/07/10 00:22:57;;;;;;;0.10;0.10;;;;;;;21.87;50.51;99106.06;5030344;28;20033;-76
2021/07/10 00:25:22;;;;;;;0.08;0.08;;;;;;;21.85;50.42;99114.59;5031012;28;20045;-75
2021/07/10 00:27:49;;;;;;;0.10;0.10;;;;;;;21.85;50.05;99120.03;5031492;28;20400;-75
2021/07/10 00:30:17;;;;;;;0.10;0.10;;;;;;;21.80;50.17;99112.13;5031720;28;20037;-75
2021/07/10 00:32:43;;;;;;;0.10;0.10;;;;;;;21.79;49.80;99112.47;5032228;28;20027;-75
2021/07/10 00:35:09;;;;;;;0.10;0.10;;;;;;;21.76;50.17;99116.69;5024521;28;20563;-76
2021/07/10 00:37:35;;;;;;;0.10;0.10;;;;;;;21.73;50.38;99111.94;5012204;28;20042;-78
2021/07/10 00:40:01;;;;;;;0.13;0.13;;;;;;;21.68;50.39;99112.19;5028543;28;20268;-78
2021/07/10 00:42:26;;;;;;;0.10;0.10;;;;;;;21.63;50.56;99113.25;5029869;28;20120;-78
2021/07/10 00:44:51;;;;;;;0.08;0.08;;;;;;;21.59;50.53;99112.34;5030483;28;20025;-77
2021/07/10 00:47:17;;;;;;;0.10;0.10;;;;;;;21.54;50.45;99118.81;5030226;28;20030;-77
2021/07/10 00:49:43;;;;;;;0.10;0.10;;;;;;;21.51;50.39;99119.50;5030463;28;20021;-77
2021/07/10 00:52:08;;;;;;;0.00;0.00;;;;;;;21.47;50.48;99115.91;5030335;28;20034;-77
2021/07/10 00:54:36;;;;;;;0.10;0.10;;;;;;;21.41;50.53;99114.56;5017244;28;20472;-77
2021/07/10 00:57:02;;;;;;;0.10;0.10;;;;;;;21.37;50.83;99109.03;5012503;28;20034;-77
2021/07/10 00:59:28;;;;;;;0.00;0.00;;;;;;;21.31;50.76;99102.25;5043665;28;20474;-78
2021/07/10 01:01:53;;;;;;;0.10;0.10;;;;;;;21.26;50.64;99108.75;5043676;28;20038;-78
2021/07/10 01:04:19;;;;;;;0.10;0.10;;;;;;;21.22;50.87;99098.91;5043602;28;20481;-79
2021/07/10 01:06:47;;;;;;;0.00;0.00;;;;;;;21.18;50.99;99098.00;5055920;28;20428;-79
2021/07/10 01:09:13;;;;;;;0.10;0.10;;;;;;;21.15;51.13;99087.81;5012094;28;20036;-79
2021/07/10 01:11:38;;;;;;;0.00;0.00;;;;;;;21.14;51.62;99087.03;5048567;28;20033;-78
2021/07/10 01:14:04;;;;;;;0.00;0.00;;;;;;;21.11;51.68;99088.50;5017438;28;20026;-79
2021/07/10 01:16:29;;;;;;;0.10;0.10;;;;;;;21.12;51.72;99089.31;5052565;28;20038;-80
2021/07/10 01:18:55;;;;;;;0.00;0.00;;;;;;;21.08;51.42;99081.06;5055007;28;20029;-78
2021/07/10 01:21:20;;;;;;;0.10;0.10;;;;;;;21.06;51.46;99079.81;5029712;28;20033;-75
2021/07/10 01:23:48;;;;;;;0.10;0.10;;;;;;;21.04;51.49;99082.88;5030051;28;20025;-78
2021/07/10 01:26:13;;;;;;;0.10;0.10;;;;;;;20.99;51.60;99074.19;5043268;28;20038;-76
2021/07/10 01:28:39;;;;;;;0.00;0.00;;;;;;;20.95;51.57;99065.91;5043051;28;20034;-77
2021/07/10 01:31:05;;;;;;;0.10;0.10;;;;;;;20.91;51.62;99057.66;5012086;28;20030;-79
2021/07/10 01:33:31;;;;;;;0.08;0.08;;;;;;;20.86;51.97;99051.66;5011631;28;20033;-74
2021/07/10 01:35:56;;;;;;;0.08;0.08;;;;;;;20.79;51.87;99060.41;5021479;28;20079;-74
2021/07/10 01:38:22;;;;;;;0.10;0.10;;;;;;;20.76;52.26;99047.50;5029826;28;20025;-75
2021/07/10 01:40:48;;;;;;;0.03;0.03;;;;;;;20.72;52.60;99052.84;5018976;28;20034;-78
2021/07/10 01:43:13;;;;;;;0.10;0.10;;;;;;;20.68;52.34;99045.69;5009827;28;20022;-75
2021/07/10 01:45:40;;;;;;;0.00;0.00;;;;;;;20.68;52.72;99042.97;5011364;28;20026;-75
2021/07/10 01:48:10;;;;;;;0.00;0.00;;;;;;;20.64;52.83;99046.38;5030477;28;20117;-75
2021/07/10 01:50:35;;;;;;;0.10;0.10;;;;;;;20.62;52.82;99045.94;5014801;28;20109;-76
2021/07/10 01:53:01;;;;;;;0.00;0.00;;;;;;;20.60;52.64;99042.78;5043122;28;20121;-75
2021/07/10 01:55:28;;;;;;;0.10;0.10;;;;;;;20.56;52.68;99033.72;5030054;28;20046;-74
2021/07/10 01:57:54;;;;;;;0.10;0.10;;;;;;;20.53;52.76;99034.41;5030760;28;20025;-75
2021/07/10 02:00:26;;;;;;;0.10;0.10;;;;;;;20.53;52.57;99047.19;5030753;28;20049;-75
2021/07/10 02:02:52;;;;;;;0.10;0.10;;;;;;;20.45;52.58;99036.13;5030287;28;20552;-73
2021/07/10 02:05:24;;;;;;;0.00;0.00;;;;;;;20.39;52.77;99036.69;5026283;28;20030;-75
2021/07/10 02:07:50;;;;;;;0.10;0.10;;;;;;;20.33;52.83;99044.28;5020467;28;20469;-75
2021/07/10 02:10:18;;;;;;;0.00;0.00;;;;;;;20.26;53.00;99036.72;5030671;28;20120;-73
2021/07/10 02:12:46;;;;;;;0.03;0.03;;;;;;;20.21;53.30;99036.16;5030589;28;20400;-73
2021/07/10 02:15:12;;;;;;;0.00;0.00;;;;;;;20.16;53.32;99037.16;5030668;28;20408;-74
2021/07/10 02:17:37;;;;;;;0.10;0.10;;;;;;;20.10;53.46;99036.63;5029236;28;20022;-75
2021/07/10 02:20:07;;;;;;;0.10;0.10;;;;;;;20.04;53.54;99040.66;5029860;28;20544;-75
2021/07/10 02:22:33;;;;;;;0.10;0.10;;;;;;;20.02;54.01;99037.53;5028291;28;20112;-75
2021/07/10 02:24:58;;;;;;;0.10;0.10;;;;;;;20.00;53.54;99045.97;5016674;28;20133;-77
2021/07/10 02:27:24;;;;;;;0.00;0.00;;;;;;;19.98;53.78;99042.03;5042710;28;20026;-76
2021/07/10 02:29:50;;;;;;;0.10;0.10;;;;;;;19.97;54.00;99038.53;5012274;28;20120;-77
2021/07/10 02:32:15;;;;;;;0.10;0.10;;;;;;;19.96;53.98;99039.66;5031792;28;20026;-76
2021/07/10 02:34:40;;;;;;;0.10;0.10;;;;;;;19.95;54.03;99035.34;5032482;28;20416;-77
2021/07/10 02:37:06;;;;;;;0.08;0.08;;;;;;;19.96;53.78;99038.88;5034378;28;20033;-76
2021/07/10 02:39:31;;;;;;;0.10;0.10;;;;;;;19.94;54.02;99041.91;5031971;28;20041;-75
2021/07/10 02:41:57;;;;;;;0.00;0.00;;;;;;;19.93;53.83;99045.78;5048913;28;20026;-75
2021/07/10 02:44:22;;;;;;;0.10;0.10;;;;;;;19.91;54.11;99039.88;5033851;28;20036;-77
2021/07/10 02:46:48;;;;;;;0.10;0.10;;;;;;;19.90;53.97;99048.38;5032675;28;20504;-78
2021/07/10 02:49:13;;;;;;;0.00;0.00;;;;;;;19.84;53.89;99043.16;5032735;28;20028;-76
2021/07/10 02:51:39;;;;;;;0.40;0.40;;;;;;;19.81;53.93;99040.28;5032392;28;20036;-76
2021/07/10 02:54:05;;;;;;;0.10;0.10;;;;;;;19.77;53.80;99040.16;5024678;28;20034;-75
2021/07/10 02:56:31;;;;;;;0.10;0.10;;;;;;;19.74;53.89;99030.00;5013732;28;20555;-75
2021/07/10 02:58:56;;;;;;;0.00;0.00;;;;;;;19.74;54.03;99040.88;5013889;28;20401;-76
2021/07/10 03:01:22;;;;;;;0.00;0.00;;;;;;;19.72;54.35;99036.91;5013653;28;20029;-76
2021/07/10 03:03:48;;;;;;;0.10;0.10;;;;;;;19.76;54.11;99029.66;5020894;28;20026;-76
2021/07/10 03:06:14;;;;;;;0.00;0.00;;;;;;;19.89;54.26;99038.66;5033175;28;20045;-77
2021/07/10 03:08:39;;;;;;;0.03;0.03;;;;;;;19.99;53.85;99033.56;5032234;28;20056;-76
2021/07/10 03:11:06;;;;;;;0.00;0.00;;;;;;;20.13;53.52;99029.72;5022020;28;20033;-76
2021/07/10 03:13:31;;;;;;;0.10;0.10;;;;;;;20.30;52.99;99029.47;5013344;28;20029;-77
2021/07/10 03:15:57;;;;;;;0.10;0.10;;;;;;;20.49;52.58;99030.78;5013654;28;20041;-75
2021/07/10 03:18:22;;;;;;;0.05;0.05;;;;;;;20.72;51.83;99035.75;5013064;28;20032;-78
2021/07/10 03:20:48;;;;;;;0.10;0.10;;;;;;;20.98;51.43;99034.53;5013187;28;20037;-75
2021/07/10 03:23:13;;;;;;;0.10;0.10;;;;;;;21.25;50.61;99031.00;5051309;28;20026;-77
2021/07/10 03:25:41;;;;;;;0.00;0.00;;;;;;;21.54;49.84;99020.84;5017681;28;20042;-77
2021/07/10 03:28:07;;;;;;;0.00;0.00;;;;;;;21.93;48.78;99027.66;5013441;28;20018;-75
2021/07/10 03:30:32;;;;;;;0.10;0.10;;;;;;;22.29;48.31;99028.47;5013186;28;20045;-76
2021/07/10 03:32:58;;;;;;;0.00;0.00;;;;;;;22.62;47.54;99022.59;5013239;28;20022;-76
2021/07/10 03:35:23;;;;;;;0.03;0.03;;;;;;;22.98;46.38;99017.84;5017739;28;20040;-75
2021/07/10 03:37:50;;;;;;;0.10;0.10;;;;;;;23.38;45.77;99026.81;5031892;28;20036;-75
2021/07/10 03:40:19;;;;;;;0.00;0.00;;;;;;;23.76;44.39;99030.56;5013190;28;20468;-77
2021/07/10 03:42:45;;;;;;;0.00;0.00;;;;;;;24.13;43.74;99024.53;5030113;28;20029;-77
2021/07/10 03:45:12;;;;;;;0.10;0.10;;;;;;;24.53;42.79;99029.75;5030831;28;20037;-75
2021/07/10 03:47:38;;;;;;;0.10;0.10;;;;;;;24.79;42.10;99020.72;5032766;28;20076;-76
2021/07/10 03:50:05;;;;;;;0.00;0.00;;;;;;;25.17;41.23;99020.75;5032510;28;20486;-75
2021/07/10 03:52:30;;;;;;;0.00;0.00;;;;;;;25.48;40.92;99016.03;5031210;28;20487;-76
2021/07/10 03:54:55;;;;;;;0.03;0.03;;;;;;;25.86;39.94;99022.97;5032093;28;20056;-76
2021/07/10 03:57:21;;;;;;;0.00;0.00;;;;;;;26.26;39.46;99026.00;5028992;28;20026;-75
2021/07/10 03:59:46;;;;;;;0.00;0.00;;;;;;;26.63;38.77;99025.00;5012602;28;20030;-75
2021/07/10 04:02:12;;;;;;;0.00;0.00;;;;;;;27.04;37.76;99023.22;5021874;28;20026;-75
2021/07/10 04:04:37;;;;;;;1.10;1.10;;;;;;;27.40;37.22;99018.59;5031915;28;20029;-75
2021/07/10 04:07:03;;;;;;;0.00;0.00;;;;;;;27.78;36.46;99016.28;5028642;28;20048;-75
2021/07/10 04:09:28;;;;;;;0.10;0.10;;;;;;;28.16;35.73;99012.34;5012309;28;20469;-75
2021/07/10 04:11:53;;;;;;;0.00;0.00;;;;;;;28.52;35.13;99017.75;5012524;28;20109;-75
2021/07/10 04:14:19;;;;;;;0.00;0.00;;;;;;;28.87;34.49;99018.81;5027680;28;20063;-75
2021/07/10 04:16:44;;;;;;;0.10;0.10;;;;;;;29.23;34.41;99015.84;5031911;28;20033;-75
2021/07/10 04:19:10;;;;;;;0.00;0.00;;;;;;;29.56;33.51;99027.44;5032521;28;20033;-75
2021/07/10 04:21:35;;;;;;;0.00;0.00;;;;;;;29.91;33.19;99025.59;5031319;28;20037;-75
2021/07/10 04:24:01;;;;;;;0.00;0.00;;;;;;;30.22;33.12;99019.41;5031173;28;20037;-77
2021/07/10 04:26:26;;;;;;;0.00;0.00;;;;;;;30.51;32.31;99017.13;5030397;28;20029;-75
2021/07/10 04:28:51;;;;;;;0.00;0.00;;;;;;;30.81;32.15;99016.34;5031011;28;20017;-75
2021/07/10 04:31:17;;;;;;;0.00;0.00;;;;;;;31.07;31.58;99005.75;5031086;28;20029;-75
2021/07/10 04:33:43;;;;;;;0.00;0.00;;;;;;;31.28;31.52;99012.19;5021715;28;20081;-79
2021/07/10 04:36:08;;;;;;;0.00;0.00;;;;;;;31.55;30.96;99005.84;5058242;28;20047;-78
2021/07/10 04:38:37;;;;;;;0.00;0.00;;;;;;;31.66;30.87;99000.16;5030407;28;20484;-78
2021/07/10 04:41:04;;;;;;;0.00;0.00;;;;;;;31.92;30.32;99004.84;5030456;28;20033;-78
2021/07/10 04:43:29;;;;;;;0.00;0.00;;;;;;;32.05;29.98;99004.97;5030055;28;20033;-81
2021/07/10 04:45:56;;;;;;;0.00;0.00;;;;;;;32.09;30.10;99002.16;5030264;28;20079;-81
2021/07/10 04:48:21;;;;;;;0.10;0.10;;;;;;;32.21;30.13;99004.34;5029126;28;20485;-80
2021/07/10 04:50:47;;;;;;;0.00;0.00;;;;;;;32.19;29.88;99006.72;5030041;28;20038;-83
2021/07/10 04:53:12;;;;;;;0.10;0.10;;;;;;;32.27;30.25;99007.38;5029929;28;20416;-81
2021/07/10 04:55:38;;;;;;;0.00;0.00;;;;;;;32.52;29.82;99000.56;5029533;28;20033;-80
2021/07/10 04:58:03;;;;;;;0.00;0.00;;;;;;;32.72;29.82;99006.84;5030083;28;20040;-78
2021/07/10 05:00:29;;;;;;;0.00;0.00;;;;;;;32.93;29.63;98996.53;5022741;28;20030;-79
2021/07/10 05:02:54;;;;;;;0.00;0.00;;;;;;;33.10;29.32;98997.34;5043191;28;20030;-77
2021/07/10 05:05:20;;;;;;;0.00;0.00;;;;;;;33.13;29.69;99004.81;5061332;28;20397;-78
2021/07/10 05:07:45;;;;;;;0.00;0.00;;;;;;;33.41;28.46;99007.34;5031061;28;20021;-78
2021/07/10 05:10:12;;;;;;;0.00;0.00;;;;;;;33.32;28.21;99005.97;5030908;28;20473;-78
2021/07/10 05:12:37;;;;;;;0.10;0.10;;;;;;;33.07;28.89;99002.97;5029622;28;20461;-77
2021/07/10 05:15:04;;;;;;;0.20;0.20;;;;;;;33.20;28.28;99001.88;5029733;28;20121;-76
2021/07/10 05:17:29;;;;;;;0.00;0.00;;;;;;;33.30;27.65;99000.09;5029667;28;20049;-77
2021/07/10 05:19:55;;;;;;;0.10;0.10;;;;;;;33.25;28.23;98999.78;5031272;28;20358;-77
2021/07/10 05:22:20;;;;;;;0.20;0.20;;;;;;;33.43;27.93;99011.25;5030675;28;20122;-77
2021/07/10 05:24:45;;;;;;;0.00;0.00;;;;;;;33.69;27.82;99003.09;5029034;28;20424;-77
2021/07/10 05:27:11;;;;;;;0.20;0.20;;;;;;;34.05;27.72;99013.28;5029515;28;20403;-78
2021/07/10 05:29:37;;;;;;;0.00;0.00;;;;;;;34.28;27.25;99011.50;5024587;28;20029;-80
2021/07/10 05:32:03;;;;;;;0.20;0.20;;;;;;;34.48;27.14;99022.44;5029381;28;20112;-80
2021/07/10 05:34:29;;;;;;;0.00;0.00;;;;;;;34.68;26.74;99022.28;5028687;28;20072;-77
2021/07/10 05:36:54;;;;;;;0.00;0.00;;;;;;;34.83;27.03;99019.06;5030836;28;20053;-81
2021/07/10 05:39:19;;;;;;;0.00;0.00;;;;;;;34.90;26.68;99030.78;5029344;28;20032;-82
2021/07/10 05:41:46;;;;;;;0.10;0.10;;;;;;;35.02;26.21;99020.91;5024598;28;20083;-77
2021/07/10 05:44:12;;;;;;;0.00;0.00;;;;;;;35.21;25.32;99021.88;5029717;28;20029;-77
2021/07/10 05:46:37;;;;;;;0.00;0.00;;;;;;;35.30;26.40;99031.53;5025456;28;20113;-74
2021/07/10 05:49:03;;;;;;;0.00;0.00;;;;;;;35.51;26.31;99022.56;5030666;28;20483;-74
2021/07/10 05:51:29;;;;;;;0.10;0.10;;;;;;;35.38;25.97;99027.34;5028081;28;20022;-74
2021/07/10 05:53:55;;;;;;;0.10;0.10;;;;;;;35.36;25.54;99024.97;5026801;28;20411;-73
2021/07/10 05:56:20;;;;;;;0.10;0.10;;;;;;;35.53;25.83;99020.06;5028464;28;20037;-74
2021/07/10 05:58:45;;;;;;;0.22;0.22;;;;;;;35.67;25.81;99016.06;5017349;28;20026;-76
2021/07/10 06:01:12;;;;;;;0.00;0.00;;;;;;;35.45;25.58;99027.13;5029141;28;20104;-75
2021/07/10 06:03:37;;;;;;;0.40;0.40;;;;;;;35.51;25.62;99017.00;5026505;28;20026;-76
2021/07/10 06:06:03;;;;;;;0.00;0.00;;;;;;;35.47;25.57;99021.88;5029548;28;20036;-76
2021/07/10 06:08:29;;;;;;;0.10;0.10;;;;;;;35.62;25.92;99019.41;5032991;28;20044;-75
2021/07/10 06:10:56;;;;;;;0.00;0.00;;;;;;;35.90;26.03;99016.91;5026431;28;20025;-75
2021/07/10 06:13:22;;;;;;;0.10;0.10;;;;;;;36.22;25.32;99012.97;5033213;28;20067;-75
2021/07/10 06:15:47;;;;;;;0.00;0.00;;;;;;;36.53;24.79;99017.06;5033989;28;20061;-74
2021/07/10 06:18:13;;;;;;;0.08;0.08;;;;;;;36.67;24.87;99016.53;5036600;28;20025;-74
2021/07/10 06:20:42;;;;;;;0.00;0.00;;;;;;;36.90;24.85;99024.88;5034086;28;20380;-74
2021/07/10 06:23:08;;;;;;;0.00;0.00;;;;;;;37.02;24.58;99018.44;5038808;28;20515;-75
2021/07/10 06:25:36;;;;;;;3.63;0.30;;;;;;;36.88;23.85;99021.75;5032776;28;20037;-75
2021/07/10 06:28:03;;;;;;;0.10;0.10;;;;;;;36.40;24.33;99027.50;5034105;28;20056;-75
2021/07/10 06:30:29;;;;;;;0.00;0.00;;;;;;;36.10;24.69;99027.75;5033779;28;20504;-75
2021/07/10 06:32:55;;;;;;;0.03;0.03;;;;;;;35.62;25.03;99022.19;5033750;28;20029;-75
2021/07/10 06:35:21;;;;;;;0.08;0.08;;;;;;;35.22;25.53;99028.22;5028993;28;20044;-75
2021/07/10 06:37:46;;;;;;;0.10;0.10;;;;;;;34.82;26.06;99014.75;5033516;28;20034;-75
2021/07/10 06:40:14;;;;;;;0.00;0.00;;;;;;;34.49;26.51;99021.22;5033530;28;20042;-76
2021/07/10 06:42:40;;;;;;;0.00;0.00;;;;;;;33.93;25.96;99014.00;5012336;28;20516;-76
2021/07/10 06:45:09;;;;;;;0.17;0.17;;;;;;;33.49;27.29;99020.59;5013793;28;20034;-76
2021/07/10 06:47:35;;;;;;;0.10;0.10;;;;;;;33.20;26.84;99023.25;5013637;28;20026;-75
2021/07/10 06:50:03;;;;;;;0.10;0.10;;;;;;;32.87;27.28;99029.53;5012444;28;20535;-75
2021/07/10 06:52:28;;;;;;;0.28;0.10;;;;;;;32.64;27.55;99024.03;5030703;28;20497;-75
2021/07/10 06:54:53;;;;;;;0.10;0.10;;;;;;;32.50;27.27;99025.13;5033098;28;20030;-75
2021/07/10 06:57:19;;;;;;;0.10;0.10;;;;;;;32.26;28.45;99019.66;5033586;28;20022;-74
2021/07/10 06:59:44;;;;;;;0.10;0.10;;;;;;;32.07;27.42;99021.94;5033333;28;20104;-75
2021/07/10 07:02:10;;;;;;;0.05;0.05;;;;;;;31.91;27.27;99017.09;5033472;28;20022;-76
2021/07/10 07:04:36;;;;;;;0.20;0.20;;;;;;;31.52;28.60;99023.25;5033213;28;20052;-76
2021/07/10 07:07:02;;;;;;;0.00;0.00;;;;;;;31.21;29.06;99026.88;5029518;28;20559;-76
2021/07/10 07:09:27;;;;;;;0.20;0.20;;;;;;;31.01;29.02;99023.97;5024225;28;20109;-76
2021/07/10 07:11:53;;;;;;;0.22;0.22;;;;;;;30.95;29.90;99023.66;5033456;28;20026;-76
2021/07/10 07:14:19;;;;;;;0.10;0.10;;;;;;;30.94;30.13;99018.56;5029254;28;20424;-76
2021/07/10 07:16:45;;;;;;;0.00;0.00;;;;;;;31.04;30.29;99025.13;5025931;28;20029;-77
2021/07/10 07:19:10;;;;;;;0.00;0.00;;;;;;;31.13;30.14;99023.44;5033713;28;20408;-77
2021/07/10 07:21:36;;;;;;;0.00;0.00;;;;;;;31.21;29.60;99015.81;5033717;28;20028;-77
2021/07/10 07:24:01;;;;;;;0.22;0.20;;;;;;;31.00;29.32;99022.41;5034006;28;20057;-75
2021/07/10 07:26:26;;;;;;;0.00;0.00;;;;;;;30.90;29.57;99020.59;5030787;28;20420;-76
2021/07/10 07:28:52;;;;;;;0.35;0.30;;;;;;;30.64;30.83;99017.38;5032751;28;20072;-76
2021/07/10 07:31:17;;;;;;;0.38;0.38;;;;;;;30.41;30.81;99018.78;5033354;28;20480;-75
2021/07/10 07:33:43;;;;;;;0.28;0.28;;;;;;;30.31;31.37;99017.72;5032378;28;20031;-78
2021/07/10 07:36:09;;;;;;;0.22;0.22;;;;;;;30.23;30.86;99024.50;5025586;28;20053;-76
2021/07/10 07:38:35;;;;;;;0.05;0.05;;;;;;;30.12;31.20;99024.59;5032811;28;20464;-74
2021/07/10 07:41:02;;;;;;;0.00;0.00;;;;;;;30.07;32.16;99022.28;5032387;28;20108;-76
2021/07/10 07:43:28;;;;;;;0.00;0.00;;;;;;;30.14;32.26;99024.22;5031701;28;20029;-75
2021/07/10 07:45:53;;;;;;;0.00;0.00;;;;;;;30.14;32.25;99021.44;5031173;28;20028;-76
2021/07/10 07:48:19;;;;;;;0.47;0.47;;;;;;;30.10;32.77;99021.50;5028549;28;20041;-76
2021/07/10 07:50:44;;;;;;;0.00;0.00;;;;;;;30.15;32.63;99015.53;5032459;28;20100;-82
2021/07/10 07:53:10;;;;;;;0.00;0.00;;;;;;;30.07;32.01;99025.06;5030870;28;20124;-78
2021/07/10 07:55:36;;;;;;;0.20;0.20;;;;;;;29.89;31.87;99019.69;5031387;28;20022;-76
2021/07/10 07:58:03;;;;;;;0.20;0.20;;;;;;;29.71;32.37;99026.13;5030748;28;20403;-76
2021/07/10 08:00:28;;;;;;;0.00;0.00;;;;;;;29.57;32.52;99020.75;5033928;28;20025;-76
2021/07/10 08:02:54;;;;;;;0.15;0.15;;;;;;;29.52;32.40;99027.47;5029251;28;20030;-76
2021/07/10 08:05:20;;;;;;;0.10;0.10;;;;;;;29.30;34.04;99017.81;5028833;28;20025;-75
2021/07/10 08:07:45;;;;;;;0.30;0.30;;;;;;;29.13;33.86;99016.69;5028108;28;20041;-76
2021/07/10 08:10:13;;;;;;;0.63;0.50;;;;;;;28.97;35.03;99015.22;5032060;28;20029;-76
2021/07/10 08:12:40;;;;;;;0.15;0.15;;;;;;;28.94;34.72;99018.75;5032189;28;20033;-76
2021/07/10 08:15:07;;;;;;;0.20;0.20;;;;;;;28.80;33.65;99030.63;5031016;28;20037;-76
2021/07/10 08:17:33;;;;;;;0.00;0.00;;;;;;;28.65;33.37;99029.88;5028347;28;20025;-76
2021/07/10 08:19:58;;;;;;;0.05;0.05;;;;;;;28.52;33.74;99015.78;5020314;28;20516;-76
2021/07/10 08:22:24;;;;;;;0.20;0.20;;;;;;;28.49;34.00;99021.28;5020969;28;20034;-77
2021/07/10 08:24:50;;;;;;;0.03;0.03;;;;;;;28.49;34.44;99024.84;5026982;28;20397;-76
2021/07/10 08:27:15;;;;;;;0.10;0.10;;;;;;;28.44;34.67;99017.78;5032375;28;20029;-77
2021/07/10 08:29:42;;;;;;;0.05;0.05;;;;;;;28.48;35.54;99025.22;5030374;28;20091;-77
2021/07/10 08:32:08;;;;;;;0.10;0.10;;;;;;;28.44;35.61;99019.72;5030247;28;20030;-75
2021/07/10 08:34:34;;;;;;;0.10;0.10;;;;;;;28.46;35.96;99022.09;5030214;28;20063;-74
2021/07/10 08:37:02;;;;;;;0.10;0.10;;;;;;;28.44;35.70;99012.28;5038831;28;20558;-74
2021/07/10 08:39:27;;;;;;;;;;;;;;;28.32;34.56;99022.91;5030872;28;20048;-75
2021/07/10 08:41:53;;;;;;;0.20;0.20;;;;;;;28.30;36.07;99014.28;5016450;28;20368;-74
2021/07/10 08:44:19;;;;;;;0.25;0.25;;;;;;;28.40;36.42;99007.97;5012193;28;20029;-75
2021/07/10 08:46:46;;;;;;;0.00;0.00;;;;;;;28.40;33.79;99014.22;5017618;28;20034;-77
2021/07/10 08:49:14;;;;;;;0.20;0.20;;;;;;;28.41;34.94;99013.06;5025415;28;20094;-76
2021/07/10 08:51:46;;;;;;;0.20;0.20;;;;;;;28.33;33.97;99008.78;5029528;28;20405;-75
2021/07/10 08:54:13;;;;;;;0.00;0.00;;;;;;;28.33;34.09;99011.53;5027304;28;20748;-75
2021/07/10 08:56:38;;;;;;;0.43;0.43;;;;;;;28.31;34.74;99002.88;5017696;28;20409;-76
2021/07/10 08:59:04;;;;;;;0.13;0.13;;;;;;;28.26;34.19;98993.06;5031860;28;20029;-78
2021/07/10 09:01:30;;;;;;;1.38;1.15;;;;;;;28.28;34.18;99017.41;5018895;28;20026;-77
2021/07/10 09:03:55;;;;;;;0.10;0.10;;;;;;;28.28;33.71;99006.41;5017680;28;20038;-76
2021/07/10 09:06:20;;;;;;;0.35;0.35;;;;;;;28.21;34.05;99012.72;5021968;28;20025;-75
2021/07/10 09:08:55;;;;;;;0.20;0.20;;;;;;;28.21;34.87;99007.22;5029756;28;20029;-75
2021/07/10 09:11:21;;;;;;;0.40;0.40;;;;;;;28.19;34.38;99017.06;5029974;28;20026;-77
2021/07/10 09:13:55;;;;;;;0.08;0.08;;;;;;;28.14;34.23;99014.69;5031148;28;20108;-77
2021/07/10 09:16:23;;;;;;;0.50;0.50;;;;;;;28.16;34.90;99002.13;5028065;28;20104;-77
2021/07/10 09:18:51;;;;;;;0.30;0.30;;;;;;;28.17;35.44;98995.44;5030718;28;20040;-76
2021/07/10 09:21:33;;;;;;;0.10;0.10;;;;;;;28.23;34.56;98998.56;5019854;28;20029;-76
2021/07/10 09:24:00;;;;;;;0.00;0.00;;;;;;;28.33;34.81;99002.47;5010900;28;20034;-77
2021/07/10 09:26:26;;;;;;;0.98;0.98;;;;;;;28.43;35.31;98994.19;5013954;28;20026;-77
2021/07/10 09:28:56;;;;;;;0.00;0.00;;;;;;;28.50;34.93;98998.88;5030361;28;20499;-77
2021/07/10 09:31:31;;;;;;;0.65;0.30;;;;;;;28.57;35.07;99004.34;5030677;28;20034;-77
2021/07/10 09:34:01;;;;;;;0.10;0.10;;;;;;;28.62;34.56;98983.13;5027294;28;20064;-77
2021/07/10 09:36:27;;;;;;;0.47;0.45;;;;;;;28.64;34.40;99000.00;5029497;28;20697;-76
2021/07/10 09:38:53;;;;;;;1.95;1.10;;;;;;;28.60;33.88;98991.78;5030443;28;20120;-77
2021/07/10 09:41:31;;;;;;;0.08;0.08;;;;;;;28.53;33.89;98995.34;5030737;28;20028;-76
2021/07/10 09:44:06;;;;;;;0.30;0.30;;;;;;;28.37;33.33;98989.50;5034806;28;20034;-75
2021/07/10 09:46:32;;;;;;;1.98;0.75;;;;;;;28.34;33.94;98976.56;5034879;28;20108;-75
2021/07/10 09:48:57;;;;;;;0.30;0.30;;;;;;;28.42;35.40;98978.88;5034560;28;20045;-76
2021/07/10 09:51:26;;;;;;;0.25;0.25;;;;;;;28.32;32.72;98990.69;5033768;28;20034;-76
2021/07/10 09:54:08;;;;;;;0.03;0.03;;;;;;;28.32;33.09;98985.19;5034107;28;20040;-80
2021/07/10 09:56:36;;;;;;;0.20;0.20;;;;;;;28.33;33.28;98975.78;5028044;28;20514;-76
2021/07/10 09:59:17;;;;;;;0.00;0.00;;;;;;;28.34;29.74;98987.53;5033041;28;20041;-75
2021/07/10 10:01:44;;;;;;;0.15;0.15;;;;;;;28.31;29.27;98972.63;5027927;28;20646;-76
2021/07/10 10:04:19;;;;;;;0.00;0.00;;;;;;;28.33;30.06;98977.72;5034586;28;20447;-76
2021/07/10 10:06:45;;;;;;;0.43;0.25;;;;;;;28.25;28.94;98980.50;5033158;28;20113;-78
2021/07/10 10:09:20;;;;;;;0.57;0.57;;;;;;;28.17;29.46;98978.94;5033020;28;20124;-82
2021/07/10 10:11:59;;;;;;;0.00;0.00;;;;;;;28.25;28.07;98961.25;5030772;28;20036;-76
2021/07/10 10:14:31;;;;;;;0.28;0.28;;;;;;;28.36;28.27;98969.47;5034316;28;20026;-76
2021/07/10 10:16:58;;;;;;;0.47;0.47;;;;;;;28.46;28.03;98958.84;5030250;28;20132;-75
2021/07/10 10:19:26;;;;;;;0.03;0.03;;;;;;;28.57;29.13;98951.31;5021332;28;20060;-77
2021/07/10 10:21:54;;;;;;;0.20;0.20;;;;;;;28.72;28.90;98955.59;5046368;28;20527;-75
2021/07/10 10:24:22;;;;;;;0.05;0.05;;;;;;;28.74;29.66;98955.94;5038104;28;20147;-75
2021/07/10 10:26:49;;;;;;;0.10;0.10;;;;;;;28.82;28.31;98964.97;5033676;28;20476;-76
2021/07/10 10:29:18;;;;;;;0.20;0.20;;;;;;;28.78;26.48;98946.91;5033847;28;20069;-76
2021/07/10 10:31:45;;;;;;;0.00;0.00;;;;;;;28.79;26.65;98949.25;5033758;28;20108;-78
2021/07/10 10:34:12;;;;;;;0.10;0.10;;;;;;;28.77;26.55;98964.59;5029092;28;20456;-80
2021/07/10 10:36:42;;;;;;;0.50;0.50;;;;;;;28.73;26.60;98939.84;5052670;28;20032;-79
2021/07/10 10:39:20;;;;;;;0.10;0.10;;;;;;;28.78;27.06;98949.66;5032432;28;20033;-78
2021/07/10 10:42:00;;;;;;;0.22;0.22;;;;;;;28.83;27.36;98941.78;5057088;28;20021;-77
2021/07/10 10:44:34;;;;;;;0.00;0.00;;;;;;;28.83;27.53;98939.03;5031289;28;20025;-75
2021/07/10 10:46:59;;;;;;;0.00;0.00;;;;;;;28.83;26.60;98933.50;5063908;28;20116;-74
2021/07/10 10:49:43;;;;;;;0.10;0.10;;;;;;;28.74;25.54;98936.69;5033248;28;20560;-75
2021/07/10 10:52:34;;;;;;;0.10;0.10;;;;;;;28.70;25.23;98930.44;5033458;28;20040;-75
2021/07/10 10:55:09;;;;;;;11.23;2.63;;;;;;;28.67;25.75;98933.16;5033148;28;20022;-77
2021/07/10 10:57:34;;;;;;;0.00;0.00;;;;;;;28.66;24.81;98926.09;5033727;28;20029;-77
2021/07/10 11:00:03;;;;;;;0.30;0.30;;;;;;;28.73;26.39;98915.09;5065460;28;20021;-77
2021/07/10 11:02:28;;;;;;;0.52;0.30;;;;;;;28.82;24.86;98926.44;5032393;28;20038;-76
2021/07/10 11:04:57;;;;;;;0.00;0.00;;;;;;;28.80;23.79;98917.03;5065364;28;20396;-76
2021/07/10 11:07:27;;;;;;;0.25;0.25;;;;;;;28.86;24.78;98924.44;5033556;28;20060;-76
2021/07/10 11:10:01;;;;;;;0.00;0.00;;;;;;;28.95;24.08;98920.47;5033416;28;20021;-75
2021/07/10 11:12:46;;;;;;;0.20;0.20;;;;;;;28.97;22.82;98923.59;5033222;28;20039;-75
2021/07/10 11:15:32;;;;;;;0.75;0.75;;;;;;;28.96;20.14;98920.03;5033131;28;20431;-75
2021/07/10 11:18:03;;;;;;;0.00;0.00;;;;;;;28.96;20.40;98911.78;5033167;28;20108;-77
2021/07/10 11:20:48;;;;;;;0.00;0.00;;;;;;;29.06;21.27;98915.66;5033047;28;20282;-77
2021/07/10 11:23:35;;;;;;;0.00;0.00;;;;;;;29.06;22.15;98912.91;5032936;28;20079;-75
2021/07/10 11:26:12;;;;;;;6.53;1.13;;;;;;;29.03;22.15;98916.47;5033037;28;20049;-77
2021/07/10 11:28:46;;;;;;;0.00;0.00;;;;;;;29.01;21.69;98922.38;5032221;28;20401;-77
2021/07/10 11:31:17;;;;;;;1.75;1.55;;;;;;;29.01;21.67;98913.34;5064940;28;20029;-77
2021/07/10 11:34:03;;;;;;;0.50;0.50;;;;;;;29.00;21.86;98907.06;5065090;28;20044;-76